createdAt,value
2019-01-29T00:01:29.960Z,11.57
2019-01-29T00:03:58.507Z,12.57
2019-01-29T00:06:27.072Z,12.60
2019-01-29T00:08:55.475Z,13.10
2019-01-29T00:11:23.944Z,13.23
2019-01-29T00:13:52.379Z,13.33
2019-01-29T00:16:20.775Z,12.60
2019-01-29T00:18:49.323Z,12.37
2019-01-29T00:21:17.873Z,14.00
2019-01-29T00:23:46.433Z,13.77
2019-01-29T00:26:14.913Z,13.70
2019-01-29T00:28:44.423Z,14.00
2019-01-29T00:31:12.924Z,13.00
2019-01-29T00:33:41.326Z,14.20
2019-01-29T00:36:09.759Z,14.03
2019-01-29T00:38:38.295Z,14.43
2019-01-29T00:41:10.544Z,15.53
2019-01-29T00:43:39.023Z,15.23
2019-01-29T00:46:07.570Z,13.63
2019-01-29T00:48:36.007Z,13.90
2019-01-29T00:51:04.495Z,14.73
2019-01-29T00:53:33.013Z,14.93
2019-01-29T00:56:01.454Z,14.50
2019-01-29T00:58:29.910Z,14.50
2019-01-29T01:00:58.368Z,14.07
2019-01-29T01:03:26.823Z,15.53
2019-01-29T01:05:55.277Z,14.30
2019-01-29T01:08:23.671Z,16.00
2019-01-29T01:10:53.059Z,14.80
2019-01-29T01:13:21.515Z,16.23
2019-01-29T01:15:49.958Z,14.47
2019-01-29T01:18:18.455Z,15.87
2019-01-29T01:20:46.902Z,14.60
2019-01-29T01:23:15.340Z,14.63
2019-01-29T01:25:43.801Z,14.73
2019-01-29T01:28:12.375Z,14.37
2019-01-29T01:30:40.838Z,14.60
2019-01-29T01:33:09.367Z,14.03
2019-01-29T01:35:37.874Z,13.10
2019-01-29T01:38:06.338Z,14.43
2019-01-29T01:40:34.893Z,12.83
2019-01-29T01:43:03.354Z,12.67
2019-01-29T01:45:31.804Z,13.17
2019-01-29T01:48:00.332Z,11.87
2019-01-29T01:50:28.787Z,12.70
2019-01-29T01:52:59.653Z,12.93
2019-01-29T01:55:28.139Z,11.70
2019-01-29T01:57:56.675Z,11.67
2019-01-29T02:00:25.140Z,12.63
2019-01-29T02:02:53.518Z,12.30
2019-01-29T02:05:22.367Z,12.83
2019-01-29T02:07:50.813Z,12.47
2019-01-29T02:10:26.651Z,11.40
2019-01-29T02:12:55.095Z,11.60
2019-01-29T02:15:23.871Z,12.43
2019-01-29T02:17:52.397Z,12.50
2019-01-29T02:20:20.843Z,10.60
2019-01-29T02:22:49.305Z,11.93
2019-01-29T02:25:17.793Z,12.03
2019-01-29T02:27:46.259Z,12.07
2019-01-29T02:30:15.921Z,12.30
2019-01-29T02:32:44.472Z,11.43
2019-01-29T02:35:12.909Z,12.87
2019-01-29T02:37:41.365Z,11.97
2019-01-29T02:40:12.967Z,13.37
2019-01-29T02:42:41.684Z,12.03
2019-01-29T02:45:29.281Z,12.63
2019-01-29T02:48:17.043Z,12.23
2019-01-29T02:51:04.642Z,12.07
2019-01-29T02:53:52.356Z,14.37
2019-01-29T02:56:39.980Z,12.47
2019-01-29T02:59:27.679Z,13.43
2019-01-29T03:02:15.313Z,12.47
2019-01-29T03:05:02.976Z,13.97
2019-01-29T03:07:50.556Z,13.80
2019-01-29T03:10:38.189Z,14.67
2019-01-29T03:13:25.759Z,16.23
2019-01-29T05:19:24.627Z,41.90
2019-01-29T05:21:53.067Z,40.63
2019-01-29T05:24:21.424Z,43.87
2019-01-29T05:26:49.875Z,42.13
2019-01-29T05:29:37.441Z,41.03
2019-01-29T05:32:25.305Z,39.73
2019-01-29T05:35:12.884Z,40.83
2019-01-29T05:38:00.493Z,41.47
2019-01-29T05:40:48.097Z,44.43
2019-01-29T05:43:16.563Z,39.37
2019-01-29T05:45:45.132Z,42.40
2019-01-29T05:48:32.745Z,43.10
2019-01-29T05:51:20.537Z,45.43
2019-01-29T05:54:15.886Z,50.37
2019-01-29T05:56:57.676Z,52.60
2019-01-29T05:59:45.334Z,47.43
2019-01-29T06:02:35.233Z,61.28
2019-01-29T06:05:22.892Z,46.30
2019-01-29T06:08:10.475Z,43.27
2019-01-29T06:10:58.059Z,39.50
2019-01-29T06:13:45.702Z,41.90
2019-01-29T06:16:33.281Z,43.93
2019-01-29T06:19:20.869Z,41.63
2019-01-29T06:22:08.491Z,42.23
2019-01-29T06:24:37.463Z,39.80
2019-01-29T06:27:25.221Z,38.23
2019-01-29T06:30:12.881Z,37.73
2019-01-29T06:33:00.480Z,40.50
2019-01-29T06:35:48.077Z,49.23
2019-01-29T06:38:35.741Z,43.60
2019-01-29T06:41:23.317Z,44.00
2019-01-29T06:44:10.919Z,42.60
2019-01-29T06:46:39.416Z,39.83
2019-01-29T06:49:07.861Z,38.77
2019-01-29T06:51:55.522Z,36.33
2019-01-29T06:54:43.116Z,38.10
2019-01-29T06:57:30.695Z,33.60
2019-01-29T07:00:18.354Z,32.43
2019-01-29T07:03:05.942Z,32.07
2019-01-29T07:05:34.392Z,33.60
2019-01-29T07:08:02.845Z,34.70
2019-01-29T07:10:50.523Z,32.63
2019-01-29T07:13:38.077Z,33.97
2019-01-29T07:16:44.784Z,33.63
2019-01-29T07:19:51.480Z,34.13
2019-01-29T07:22:39.081Z,35.77
2019-01-29T07:25:26.653Z,33.20
2019-01-29T07:45:56.397Z,31.13
2019-01-29T07:48:44.010Z,35.03
2019-01-29T07:51:31.625Z,33.67
2019-01-29T07:54:19.213Z,35.83
2019-01-29T07:57:06.772Z,36.73
2019-01-29T07:59:54.345Z,35.80
2019-01-29T08:02:41.961Z,35.47
2019-01-29T08:05:29.520Z,35.80
2019-01-29T08:07:58.028Z,36.07
2019-01-29T08:10:26.560Z,39.10
2019-01-29T08:13:14.332Z,36.97
2019-01-29T08:16:01.907Z,36.67
2019-01-29T08:18:49.499Z,37.87
2019-01-29T08:21:37.084Z,34.70
2019-01-29T08:24:24.670Z,36.30
2019-01-29T08:26:53.125Z,36.03
2019-01-29T08:29:21.704Z,35.67
2019-01-29T08:32:09.293Z,36.50
2019-01-29T08:34:56.915Z,35.17
2019-01-29T08:37:44.518Z,37.03
2019-01-29T08:40:32.060Z,35.47
2019-01-29T08:43:19.750Z,36.43
2019-01-29T08:45:48.249Z,37.27
2019-01-29T08:48:17.123Z,39.03
2019-01-29T08:51:04.733Z,37.10
2019-01-29T08:53:52.285Z,38.80
2019-01-29T08:56:39.874Z,37.57
2019-01-29T08:59:27.424Z,39.50
2019-01-29T09:01:55.872Z,38.73
2019-01-29T09:04:24.296Z,37.10
2019-01-29T09:06:52.651Z,41.10
2019-01-29T09:09:21.103Z,38.20
2019-01-29T09:11:49.554Z,41.27
2019-01-29T09:14:17.895Z,38.37
2019-01-29T09:16:46.340Z,38.67
2019-01-29T09:19:14.848Z,40.90
2019-01-29T09:21:43.284Z,39.87
2019-01-29T09:24:11.734Z,37.50
2019-01-29T09:26:40.232Z,39.27
2019-01-29T09:29:08.579Z,38.63
2019-01-29T09:31:37.012Z,39.23
2019-01-29T09:34:05.432Z,38.97
2019-01-29T09:36:34.146Z,38.37
2019-01-29T09:39:03.146Z,34.27
2019-01-29T09:41:31.612Z,33.87
2019-01-29T09:43:59.955Z,33.53
2019-01-29T09:46:28.409Z,32.47
2019-01-29T09:48:56.775Z,33.10
2019-01-29T09:51:25.200Z,33.23
2019-01-29T09:53:53.778Z,32.80
2019-01-29T09:56:22.197Z,31.77
2019-01-29T09:58:50.648Z,29.73
2019-01-29T10:01:19.540Z,31.67
2019-01-29T10:03:48.015Z,32.10
2019-01-29T10:06:17.603Z,30.87
2019-01-29T10:08:46.063Z,29.97
2019-01-29T10:11:14.561Z,30.33
2019-01-29T10:13:43.054Z,29.67
2019-01-29T10:16:11.483Z,28.87
2019-01-29T10:18:39.931Z,29.57
2019-01-29T10:21:08.387Z,27.57
2019-01-29T10:23:36.854Z,27.77
2019-01-29T10:26:05.336Z,27.07
2019-01-29T10:28:33.963Z,25.53
2019-01-29T10:31:02.730Z,27.37
2019-01-29T10:33:31.175Z,29.90
2019-01-29T10:35:59.661Z,27.30
2019-01-29T10:38:28.193Z,26.97
2019-01-29T10:40:56.642Z,26.73
2019-01-29T10:43:25.273Z,25.63
2019-01-29T10:45:53.998Z,26.63
2019-01-29T10:48:22.446Z,21.63
2019-01-29T10:50:51.057Z,22.40
2019-01-29T10:53:19.475Z,22.33
2019-01-29T10:55:47.981Z,23.17
2019-01-29T10:58:16.423Z,20.90
2019-01-29T11:00:45.070Z,24.60
2019-01-29T11:03:13.506Z,22.30
2019-01-29T11:05:41.944Z,25.00
2019-01-29T11:08:10.641Z,23.67
2019-01-29T11:10:39.011Z,19.93
2019-01-29T11:13:07.518Z,23.87
2019-01-29T11:15:37.174Z,21.40
2019-01-29T11:18:07.694Z,21.90
2019-01-29T11:20:36.127Z,23.73
2019-01-29T11:23:04.843Z,21.73
2019-01-29T11:25:33.287Z,20.67
2019-01-29T11:28:01.754Z,18.80
2019-01-29T11:30:30.325Z,20.17
2019-01-29T11:32:58.764Z,21.23
2019-01-29T11:35:27.250Z,18.77
2019-01-29T11:37:55.683Z,20.57
2019-01-29T11:40:24.864Z,21.17
2019-01-29T11:42:53.320Z,18.70
2019-01-29T11:45:31.929Z,17.90
2019-01-29T11:48:00.371Z,20.70
2019-01-29T11:50:29.019Z,20.80
2019-01-29T11:52:58.692Z,21.33
2019-01-29T11:55:27.219Z,18.70
2019-01-29T11:57:55.601Z,17.93
2019-01-29T12:00:32.585Z,19.10
2019-01-29T12:03:01.352Z,17.87
2019-01-29T12:05:29.720Z,19.33
2019-01-29T12:07:58.287Z,17.43
2019-01-29T12:10:33.136Z,17.13
2019-01-29T12:13:02.647Z,13.80
2019-01-29T12:15:31.121Z,13.97
2019-01-29T12:17:59.501Z,11.93
2019-01-29T12:20:27.949Z,11.23
2019-01-29T12:22:56.379Z,10.87
2019-01-29T12:25:25.011Z,11.50
2019-01-29T12:27:53.471Z,12.17
2019-01-29T12:30:22.044Z,13.90
2019-01-29T12:32:50.583Z,12.20
2019-01-29T12:35:19.108Z,13.43
2019-01-29T12:37:48.637Z,10.63
2019-01-29T12:40:17.487Z,11.43
2019-01-29T12:42:46.019Z,10.43
2019-01-29T12:45:14.726Z,9.97
2019-01-29T12:47:43.174Z,9.67
2019-01-29T12:50:13.454Z,10.73
2019-01-29T12:53:13.448Z,10.43
2019-01-29T12:55:41.986Z,10.60
2019-01-29T12:58:10.455Z,9.77
2019-01-29T13:00:42.678Z,8.73
2019-01-29T13:03:11.150Z,7.73
2019-01-29T13:05:39.615Z,7.63
2019-01-29T13:08:08.097Z,7.70
2019-01-29T13:10:36.538Z,7.27
2019-01-29T13:13:05.082Z,6.87
2019-01-29T13:15:33.583Z,7.17
2019-01-29T13:18:02.095Z,5.67
2019-01-29T13:20:30.651Z,6.87
2019-01-29T13:22:59.097Z,5.90
2019-01-29T13:25:27.531Z,7.33
2019-01-29T13:27:55.988Z,6.73
2019-01-29T13:30:26.146Z,6.77
2019-01-29T13:32:54.572Z,7.00
2019-01-29T13:35:23.922Z,7.33
2019-01-29T13:37:52.360Z,7.80
2019-01-29T13:40:20.835Z,7.70
2019-01-29T13:42:49.395Z,6.90
2019-01-29T13:45:17.935Z,8.43
2019-01-29T13:47:46.442Z,6.90
2019-01-29T13:50:16.156Z,7.80
2019-01-29T13:52:44.591Z,9.33
2019-01-29T13:55:13.739Z,7.23
2019-01-29T13:57:42.175Z,6.93
2019-01-29T14:00:15.263Z,7.10
2019-01-29T14:02:43.787Z,5.63
2019-01-29T14:05:12.255Z,5.83
2019-01-29T14:07:40.619Z,5.63
2019-01-29T14:10:09.432Z,5.07
2019-01-29T14:12:37.854Z,5.70
2019-01-29T14:15:06.902Z,5.27
2019-01-29T14:17:37.287Z,6.10
2019-01-29T14:20:08.857Z,6.20
2019-01-29T14:22:37.342Z,6.33
2019-01-29T14:25:05.907Z,5.50
2019-01-29T14:27:34.508Z,6.83
2019-01-29T14:30:03.702Z,5.70
2019-01-29T14:32:32.368Z,6.17
2019-01-29T14:35:00.765Z,6.10
2019-01-29T14:37:30.684Z,6.30
2019-01-29T14:40:16.520Z,6.17
2019-01-29T14:42:46.398Z,5.57
2019-01-29T14:45:17.245Z,5.00
2019-01-29T14:47:45.695Z,5.90
2019-01-29T14:50:14.387Z,4.80
2019-01-29T14:52:42.839Z,4.90
2019-01-29T14:55:11.271Z,4.40
2019-01-29T14:57:41.208Z,4.40
2019-01-29T15:00:13.478Z,4.67
2019-01-29T15:02:44.220Z,5.40
2019-01-29T15:05:13.116Z,5.50
2019-01-29T15:07:41.547Z,6.13
2019-01-29T15:10:10.872Z,11.00
2019-01-29T15:12:39.418Z,7.60
2019-01-29T15:15:11.795Z,8.10
2019-01-29T15:17:47.798Z,6.73
2019-01-29T15:20:16.630Z,6.40
2019-01-29T15:22:46.022Z,5.73
2019-01-29T15:25:14.494Z,6.23
2019-01-29T15:27:43.103Z,5.47
2019-01-29T15:30:16.239Z,4.90
2019-01-29T15:32:44.670Z,5.60
2019-01-29T15:35:13.301Z,4.90
2019-01-29T15:37:43.558Z,5.53
2019-01-29T15:40:17.669Z,6.47
2019-01-29T15:42:46.296Z,6.83
2019-01-29T15:45:15.932Z,5.77
2019-01-29T15:47:45.442Z,6.70
2019-01-29T15:50:19.820Z,7.90
2019-01-29T15:52:48.974Z,5.87
2019-01-29T15:55:17.539Z,8.10
2019-01-29T15:57:46.142Z,6.47
2019-01-29T16:00:19.480Z,6.03
2019-01-29T16:02:47.931Z,5.40
2019-01-29T16:05:17.585Z,6.17
2019-01-29T16:07:46.052Z,6.27
2019-01-29T16:10:15.893Z,5.97
2019-01-29T16:12:44.397Z,5.53
2019-01-29T16:15:20.326Z,4.87
2019-01-29T16:17:50.959Z,6.63
2019-01-29T16:20:20.052Z,5.03
2019-01-29T16:22:49.723Z,6.10
2019-01-29T16:25:19.064Z,5.80
2019-01-29T16:27:47.600Z,6.47
2019-01-29T16:30:20.200Z,5.27
2019-01-29T16:32:49.817Z,6.00
2019-01-29T16:35:19.427Z,6.37
2019-01-29T16:37:51.200Z,7.37
2019-01-29T16:40:20.919Z,6.77
2019-01-29T16:42:56.576Z,7.13
2019-01-29T16:45:30.680Z,5.90
2019-01-29T16:48:03.386Z,6.10
2019-01-29T16:50:31.837Z,7.60
2019-01-29T16:53:00.364Z,6.10
2019-01-29T16:55:28.939Z,6.63
2019-01-29T16:58:08.623Z,6.80
2019-01-29T17:00:37.205Z,6.90
2019-01-29T17:03:11.253Z,6.87
2019-01-29T17:05:42.483Z,6.63
2019-01-29T17:08:12.026Z,6.70
2019-01-29T17:10:40.576Z,7.37
2019-01-29T17:13:08.997Z,7.67
2019-01-29T17:15:37.506Z,7.10
2019-01-29T17:18:06.585Z,7.40
2019-01-29T17:20:36.486Z,8.10
2019-01-29T17:23:10.566Z,8.00
2019-01-29T17:25:38.994Z,7.60
2019-01-29T17:28:07.431Z,7.67
2019-01-29T17:30:40.003Z,8.13
2019-01-29T17:33:08.695Z,7.77
2019-01-29T17:35:37.845Z,8.50
2019-01-29T17:38:09.811Z,8.53
2019-01-29T17:40:42.651Z,10.13
2019-01-29T17:43:11.085Z,9.20
2019-01-29T17:45:40.590Z,9.30
2019-01-29T17:48:09.195Z,9.03
2019-01-29T17:50:38.307Z,8.33
2019-01-29T17:53:06.839Z,8.17
2019-01-29T17:55:36.551Z,7.87
2019-01-29T17:58:05.363Z,8.43
2019-01-29T18:00:34.773Z,8.87
2019-01-29T18:03:03.975Z,9.30
2019-01-29T18:05:34.874Z,9.33
2019-01-29T18:08:02.605Z,8.57
2019-01-29T18:10:31.051Z,9.13
2019-01-29T18:12:59.459Z,9.07
2019-01-29T18:15:28.091Z,9.10
2019-01-29T18:17:56.828Z,10.50
2019-01-29T18:20:29.037Z,9.60
2019-01-29T18:22:57.664Z,10.17
2019-01-29T18:25:26.372Z,10.23
2019-01-29T18:28:00.941Z,12.83
2019-01-29T18:30:28.673Z,14.40
2019-01-29T18:32:57.468Z,13.30
2019-01-29T18:35:25.989Z,12.67
2019-01-29T18:37:54.891Z,11.90
2019-01-29T18:40:27.768Z,16.87
2019-01-29T18:42:56.222Z,15.53
2019-01-29T18:45:24.730Z,15.73
2019-01-29T18:47:53.395Z,17.00
2019-01-29T18:50:21.943Z,16.13
2019-01-29T18:52:53.403Z,15.75
2019-01-29T18:55:21.838Z,15.97
2019-01-29T18:57:50.479Z,15.30
2019-01-29T19:00:21.296Z,16.70
2019-01-29T19:02:50.119Z,17.83
2019-01-29T19:05:19.312Z,16.10
2019-01-29T19:07:47.811Z,15.57
2019-01-29T19:10:16.825Z,14.10
2019-01-29T19:12:45.633Z,13.10
2019-01-29T19:15:18.012Z,13.87
2019-01-29T19:17:46.452Z,14.97
2019-01-29T19:20:16.518Z,14.83
2019-01-29T19:22:44.996Z,14.73
2019-01-29T19:25:14.267Z,13.87
2019-01-29T19:27:48.596Z,14.67
2019-01-29T19:30:18.523Z,15.53
2019-01-29T19:32:46.965Z,19.17
2019-01-29T19:35:15.449Z,17.33
2019-01-29T19:37:44.206Z,14.97
2019-01-29T19:40:12.923Z,14.10
2019-01-29T19:42:41.411Z,14.83
2019-01-29T19:45:11.523Z,13.27
2019-01-29T19:47:40.034Z,12.77
2019-01-29T19:50:12.591Z,16.02
2019-01-29T19:52:41.191Z,14.13
2019-01-29T19:55:10.811Z,14.00
2019-01-29T19:57:42.289Z,14.37
2019-01-29T20:00:13.987Z,13.50
2019-01-29T20:02:42.407Z,13.60
2019-01-29T20:05:10.911Z,13.47
2019-01-29T20:07:39.369Z,14.47
2019-01-29T20:10:08.320Z,14.17
2019-01-29T20:12:39.207Z,14.33
2019-01-29T20:15:08.528Z,13.87
2019-01-29T20:17:36.956Z,14.00
2019-01-29T20:20:05.551Z,14.50
2019-01-29T20:22:36.852Z,15.83
2019-01-29T20:25:05.444Z,16.83
2019-01-29T20:27:36.009Z,16.30
2019-01-29T20:30:05.695Z,17.70
2019-01-29T20:32:34.165Z,16.97
2019-01-29T20:35:02.628Z,17.27
2019-01-29T20:37:31.512Z,16.83
2019-01-29T20:40:00.557Z,21.10
2019-01-29T20:42:29.082Z,17.30
2019-01-29T20:44:59.775Z,15.20
2019-01-29T20:47:28.436Z,14.37
2019-01-29T20:49:58.328Z,13.10
2019-01-29T20:52:28.367Z,13.73
2019-01-29T20:55:00.972Z,13.27
2019-01-29T20:57:29.481Z,12.40
2019-01-29T21:00:00.049Z,13.43
2019-01-29T21:02:29.515Z,13.63
2019-01-29T21:04:57.893Z,13.47
2019-01-29T21:07:26.360Z,13.30
2019-01-29T21:09:55.433Z,14.53
2019-01-29T21:12:23.911Z,14.37
2019-01-29T21:14:52.431Z,13.80
2019-01-29T21:17:25.318Z,14.37
2019-01-29T21:19:53.922Z,14.73
2019-01-29T21:22:22.450Z,13.43
2019-01-29T21:24:50.894Z,12.50
2019-01-29T21:27:19.367Z,13.30
2019-01-29T21:29:56.845Z,11.87
2019-01-29T21:32:25.446Z,11.20
2019-01-29T21:34:55.410Z,12.23
2019-01-29T21:37:24.004Z,11.67
2019-01-29T21:39:57.917Z,10.57
2019-01-29T21:42:26.660Z,10.97
2019-01-29T21:44:55.423Z,10.80
2019-01-29T21:47:24.156Z,9.27
2019-01-29T21:49:54.542Z,9.07
2019-01-29T21:52:23.054Z,8.80
2019-01-29T21:54:51.555Z,10.07
2019-01-29T21:57:20.023Z,9.77
2019-01-29T21:59:48.505Z,8.93
2019-01-29T22:02:17.054Z,8.63
2019-01-29T22:04:45.519Z,9.20
2019-01-29T22:07:14.026Z,9.00
2019-01-29T22:09:42.414Z,9.33
2019-01-29T22:12:10.979Z,8.77
2019-01-29T22:14:39.409Z,9.47
2019-01-29T22:17:07.863Z,8.70
2019-01-29T22:19:37.404Z,10.00
2019-01-29T22:22:24.986Z,10.60
2019-01-29T22:25:12.648Z,7.87
2019-01-29T22:28:00.272Z,9.53
2019-01-29T22:30:47.864Z,8.80
2019-01-29T22:33:35.532Z,8.77
2019-01-29T22:36:23.150Z,9.00
2019-01-29T22:39:10.728Z,10.53
2019-01-29T22:41:58.376Z,10.63
2019-01-29T22:44:45.996Z,11.03
2019-01-29T22:47:33.563Z,10.13
2019-01-29T22:50:21.166Z,11.63
2019-01-29T22:53:08.796Z,9.83
2019-01-29T22:55:56.471Z,9.60
2019-01-29T22:58:24.927Z,9.20
2019-01-29T23:00:57.786Z,9.43
2019-01-29T23:03:30.587Z,9.13
2019-01-29T23:06:04.495Z,8.60
2019-01-29T23:08:32.948Z,6.80
2019-01-29T23:11:01.388Z,7.10
2019-01-29T23:13:29.912Z,8.13
2019-01-29T23:15:58.343Z,7.90
2019-01-29T23:18:26.803Z,8.17
2019-01-29T23:20:55.330Z,8.00
2019-01-29T23:23:23.762Z,6.97
2019-01-29T23:25:52.244Z,7.63
2019-01-29T23:28:20.628Z,8.10
2019-01-29T23:30:49.088Z,8.37
2019-01-29T23:33:17.663Z,9.00
2019-01-29T23:35:46.103Z,8.43
2019-01-29T23:38:14.584Z,8.17
2019-01-29T23:40:43.101Z,9.10
2019-01-29T23:43:11.747Z,8.93
2019-01-29T23:45:40.199Z,9.17
2019-01-29T23:48:08.668Z,10.60
2019-01-29T23:50:37.138Z,10.77
2019-01-29T23:53:05.615Z,10.53
2019-01-29T23:55:34.111Z,11.63
2019-01-29T23:58:02.475Z,10.37
